KBUF/BUF METAR and TAF weather

Enter ICAO airport designator
Station Type Date Time Source
KBUF METAR 2019/08/24 08:54 UTC NOAA

KBUF 240854Z 03003KT 10SM SCT070 14/10 A3022 RMK AO2 SLP233 T01440100 53004


Station Type Date Time Source
KBUF Decoded METAR 2019/08/24 08:54 UTC NOAA

Station name not available
Aug 24, 2019 - 04:54 AM EDT / 2019.08.24 0854 UTC
Wind: from the NNE (030 degrees) at 3 MPH (3 KT):0
Visibility: 10 mile(s):0
Sky conditions: partly cloudy
Temperature: 57.9 F (14.4 C)
Dew Point: 50.0 F (10.0 C)
Relative Humidity: 74%
Pressure (altimeter): 30.22 in. Hg (1023 hPa)
Pressure tendency: 0.01 inches (0.4 hPa) higher than three hours ago
ob: KBUF 240854Z 03003KT 10SM SCT070 14/10 A3022 RMK AO2 SLP233 T01440100 53004
cycle: 9

Station Type Date Time Source
KBUF TAF 2019/08/24 09:45 UTC NOAA

TAF
AMD KBUF 240843Z 2409/2506 33005KT P6SM SCT060
FM241500 04008KT P6SM BKN050
FM242300 06005KT P6SM SCT050

Example: see airport list